Portada
METAR-TAF:

METAR-TAF

Aeropuertos :

Aeropuerto de Badajoz

Badajoz, España

latitud: 38-53N, longitud: 006-49W, altitud: 185 m

Observación

El informe se hizo hace 24 minutos, a las 05:00 UTC
Viento 2 kt del oeste
Temperatura 17°C
Humedad 88%
Presión 1014 hPa
Visibilidad 10 km o más
sin nubes por debajo de 1500 m y sin presencia de cumulonimbus.

METAR: LEBZ 020500Z AUTO 26002KT CAVOK 17/15 Q1014

Hora: 07:24 (05:24 UTC)

Pronóstico

El informe se hizo hace 6 horas y 24 minutos, a las 23:00 UTC
Pronóstico válido del 02 a las 00 UTC al 02 a las 24 UTC
Viento 6 kt del suroeste
Visibilidad 10 km o más
Escasas nubes a una altura de 3000 ft
Probabilidad 30% :
Temporalmente
del 02 a las 05 UTC al 02 a las 09 UTC
Cielo nuboso a una altura de 1400 ft

TAF: LEBZ 012300Z 0200/0224 23006KT 9999 FEW030 TX28/0215Z TN17/0205Z PROB30 TEMPO 0205/0209 BKN014

Observaciones y pronósticos meteorológicos de más de 4000 aeropuertos (mensajes METAR y TAF).

Los puntos amarillos y rojos representan las estaciones disponibles.

Ponga el ratón en el punto deseado para ver el nombre de la estación.

Haga clic para ver las observaciones y los pronósticos meteorológicos.

Para cambiar el mapa : haga clic en los botones verdes con una cruz de color negro para hacer un zoom, en el botón verde con un guión para alejar o en las flechas verdes para mapas adyacentes.


METAR-TAF: